Time;durP1;ratioP1;P1;durP2;ratioP2;P2;SDS_P1;SDS_P2;PMS_P1;PMS_P2;Temp;Humidity;BMP_temperature;BMP_pressure;BME280_temperature;BME280_humidity;BME280_pressure;Samples;Min_cycle;Max_cycle;Signal;HPM_P1;HPM_P2
2023/01/03 00:01:27;;;;;;;2.40;2.00;;;8.90;99.90;;;;;;5041451;28;20457;-71
2023/01/03 00:03:55;;;;;;;14.27;7.83;;;8.90;99.90;;;;;;5041713;28;20451;-72
2023/01/03 00:06:25;;;;;;;8.40;4.43;;;8.80;99.90;;;;;;5049198;28;20446;-72
2023/01/03 00:08:53;;;;;;;4.93;2.27;;;8.80;99.90;;;;;;5046277;28;20485;-71
2023/01/03 00:12:22;;;;;;;1.97;1.87;;;8.90;99.90;;;;;;5051467;28;20471;-71
2023/01/03 00:14:16;;;;;;;2.17;1.97;;;8.80;99.90;;;;;;5041021;28;20511;-71
2023/01/03 00:16:42;;;;;;;1.67;1.57;;;8.90;99.90;;;;;;5064302;28;20445;-71
2023/01/03 00:19:10;;;;;;;1.57;1.47;;;8.80;99.90;;;;;;5031951;28;20455;-71
2023/01/03 00:21:37;;;;;;;1.67;1.57;;;8.80;99.90;;;;;;5029213;28;20555;-72
2023/01/03 00:24:04;;;;;;;1.50;1.40;;;8.80;99.90;;;;;;5062166;28;20548;-71
2023/01/03 00:26:30;;;;;;;2.00;1.50;;;8.80;99.90;;;;;;5068573;28;20449;-71
2023/01/03 00:28:55;;;;;;;2.30;1.70;;;8.80;99.90;;;;;;5041037;28;20537;-73
2023/01/03 00:31:21;;;;;;;1.60;1.47;;;8.80;99.90;;;;;;5040698;28;20237;-71
2023/01/03 00:33:47;;;;;;;1.50;1.40;;;8.70;99.90;;;;;;5058700;28;20199;-70
2023/01/03 00:36:12;;;;;;;1.87;1.53;;;8.70;99.90;;;;;;5076555;28;20207;-71
2023/01/03 00:38:38;;;;;;;1.60;1.50;;;8.70;99.90;;;;;;5025189;28;20221;-71
2023/01/03 00:41:12;;;;;;;1.53;1.43;;;8.60;99.90;;;;;;5057403;28;20220;-71
2023/01/03 00:43:38;;;;;;;1.50;1.40;;;8.70;99.90;;;;;;5058417;28;20227;-72
2023/01/03 00:46:05;;;;;;;1.53;1.43;;;8.60;99.90;;;;;;5061923;28;20446;-72
2023/01/03 00:48:31;;;;;;;1.67;1.57;;;8.60;99.90;;;;;;5041991;28;20456;-71
2023/01/03 00:51:32;;;;;;;1.83;1.73;;;8.50;99.90;;;;;;5033461;28;21017;-71
2023/01/03 00:53:59;;;;;;;2.03;1.70;;;8.50;99.90;;;;;;5033850;28;20464;-72
2023/01/03 00:56:28;;;;;;;1.73;1.60;;;8.50;99.90;;;;;;5052080;28;20517;-71
2023/01/03 00:58:54;;;;;;;1.83;1.37;;;8.50;99.90;;;;;;5048944;28;20499;-71
2023/01/03 01:01:23;;;;;;;1.50;1.40;;;8.60;99.90;;;;;;5037438;28;20469;-71
2023/01/03 01:03:58;;;;;;;1.80;1.50;;;8.60;99.90;;;;;;5052321;28;20474;-69
2023/01/03 01:06:30;;;;;;;1.70;1.60;;;8.50;99.90;;;;;;5051176;28;20437;-71
2023/01/03 01:08:58;;;;;;;1.43;1.33;;;8.60;99.90;;;;;;5046707;28;20519;-71
2023/01/03 01:11:25;;;;;;;1.43;1.33;;;8.60;99.90;;;;;;5054978;28;20518;-71
2023/01/03 01:13:52;;;;;;;1.60;1.50;;;8.60;99.90;;;;;;5056175;28;20458;-72
2023/01/03 01:16:22;;;;;;;1.43;1.33;;;8.60;99.90;;;;;;5059373;28;21041;-71
2023/01/03 01:18:49;;;;;;;1.50;1.40;;;8.60;99.90;;;;;;5042668;28;20496;-72
2023/01/03 01:21:22;;;;;;;1.60;1.50;;;8.50;99.90;;;;;;5039134;28;20450;-71
2023/01/03 01:23:48;;;;;;;1.53;1.20;;;8.50;99.90;;;;;;5029497;28;20449;-71
2023/01/03 01:26:16;;;;;;;5.10;1.50;;;8.40;99.90;;;;;;5052251;28;20961;-71
2023/01/03 01:28:42;;;;;;;1.40;1.30;;;8.50;99.90;;;;;;5062174;28;20305;-71
2023/01/03 01:31:10;;;;;;;1.60;1.50;;;8.50;99.90;;;;;;5053989;28;20469;-71
2023/01/03 01:33:36;;;;;;;2.00;1.50;;;8.50;99.90;;;;;;5037859;28;20474;-71
2023/01/03 01:36:06;;;;;;;2.10;1.90;;;8.50;99.90;;;;;;5063888;28;20446;-71
2023/01/03 01:38:32;;;;;;;3.47;1.93;;;8.50;99.90;;;;;;5059305;28;20502;-72
2023/01/03 01:40:58;;;;;;;1.37;1.27;;;8.60;99.90;;;;;;5044962;28;20466;-71
2023/01/03 01:46:27;;;;;;;2.20;1.50;;;8.50;99.90;;;;;;5048471;28;20230;-72
2023/01/03 01:49:03;;;;;;;2.90;1.27;;;8.50;99.90;;;;;;5050992;28;20488;-72
2023/01/03 01:51:32;;;;;;;2.30;1.77;;;8.50;99.90;;;;;;5045698;28;20477;-72
2023/01/03 01:54:00;;;;;;;3.37;2.00;;;8.50;99.90;;;;;;5047963;28;20441;-71
2023/01/03 01:56:33;;;;;;;3.30;1.80;;;8.40;99.90;;;;;;5087919;28;20474;-71
2023/01/03 01:58:59;;;;;;;1.90;1.80;;;8.40;99.90;;;;;;5060031;28;20455;-71
2023/01/03 02:01:25;;;;;;;2.40;2.00;;;8.40;99.90;;;;;;5056567;28;20541;-72
2023/01/03 02:04:05;;;;;;;2.70;2.00;;;8.40;99.90;;;;;;5052316;28;20222;-71
2023/01/03 02:06:32;;;;;;;1.80;1.70;;;8.40;99.90;;;;;;5064407;28;20228;-71
2023/01/03 02:08:58;;;;;;;1.70;1.60;;;8.30;99.90;;;;;;5034459;28;20876;-71
2023/01/03 02:11:32;;;;;;;2.37;1.97;;;8.30;99.90;;;;;;5032078;28;20467;-70
2023/01/03 02:14:10;;;;;;;1.60;1.50;;;8.30;99.90;;;;;;5043623;28;20276;-72
2023/01/03 02:16:38;;;;;;;2.63;2.20;;;8.30;99.90;;;;;;5039027;28;20457;-71
2023/01/03 02:19:24;;;;;;;3.73;2.43;;;8.30;99.90;;;;;;5052588;28;20975;-71
2023/01/03 02:22:17;;;;;;;3.60;2.33;;;8.20;99.90;;;;;;5060846;28;20865;-71
2023/01/03 02:25:00;;;;;;;3.33;1.90;;;8.20;99.90;;;;;;5040208;28;20451;-71
2023/01/03 02:28:01;;;;;;;2.27;1.70;;;8.20;99.90;;;;;;5060588;28;20450;-71
2023/01/03 02:30:50;;;;;;;3.53;2.17;;;8.30;99.90;;;;;;5038791;28;20461;-70
2023/01/03 02:33:31;;;;;;;2.03;1.93;;;8.30;99.90;;;;;;5068332;28;20468;-71
2023/01/03 02:36:07;;;;;;;1.60;1.50;;;8.30;99.90;;;;;;5059310;28;20441;-71
2023/01/03 02:38:54;;;;;;;2.30;2.13;;;8.20;99.90;;;;;;5048851;28;20848;-71
2023/01/03 02:41:26;;;;;;;2.80;2.00;;;8.20;99.90;;;;;;5052141;28;20454;-71
2023/01/03 02:44:01;;;;;;;1.70;1.60;;;8.20;99.90;;;;;;5048589;28;20968;-71
2023/01/03 02:46:33;;;;;;;2.20;1.97;;;8.30;99.90;;;;;;5045551;28;20457;-72
2023/01/03 02:49:07;;;;;;;2.47;2.27;;;8.20;99.90;;;;;;5057675;28;20537;-72
2023/01/03 02:52:08;;;;;;;2.23;2.13;;;8.20;99.90;;;;;;5058665;28;20477;-71
2023/01/03 02:54:40;;;;;;;5.40;1.90;;;8.10;99.90;;;;;;5038284;28;20449;-71
2023/01/03 02:57:10;;;;;;;2.07;1.83;;;8.20;99.90;;;;;;5029482;28;20450;-71
2023/01/03 02:59:43;;;;;;;2.57;2.20;;;8.20;99.90;;;;;;5042916;28;20961;-71
2023/01/03 03:02:11;;;;;;;2.27;2.07;;;8.10;99.90;;;;;;5056883;28;20448;-72
2023/01/03 03:04:39;;;;;;;2.13;2.00;;;8.10;99.90;;;;;;5080394;28;20465;-71
2023/01/03 03:07:23;;;;;;;3.20;2.20;;;8.10;99.90;;;;;;5066734;28;20438;-71
2023/01/03 03:15:27;;;;;;;2.37;2.17;;;8.10;99.90;;;;;;5067686;28;20561;-71
2023/01/03 03:17:56;;;;;;;3.93;3.07;;;8.10;99.90;;;;;;5049313;28;20454;-71
2023/01/03 03:26:07;;;;;;;3.63;2.80;;;8.10;99.90;;;;;;5060022;28;20454;-71
2023/01/03 03:28:38;;;;;;;3.13;2.43;;;8.10;99.90;;;;;;5052350;28;20971;-71
2023/01/03 03:31:38;;;;;;;3.30;3.00;;;8.10;99.90;;;;;;5075448;28;20493;-71
2023/01/03 03:34:13;;;;;;;2.57;2.37;;;8.10;99.90;;;;;;5051870;28;20585;-71
2023/01/03 03:36:46;;;;;;;2.60;2.40;;;8.00;99.90;;;;;;5057402;28;20446;-71
2023/01/03 03:45:01;;;;;;;3.00;2.77;;;7.90;99.90;;;;;;5056200;28;20450;-71
2023/01/03 03:47:57;;;;;;;3.43;3.13;;;7.90;99.90;;;;;;5058406;28;20454;-71
2023/01/03 03:50:50;;;;;;;4.20;2.63;;;7.90;99.90;;;;;;5059080;28;20456;-72
2023/01/03 03:53:19;;;;;;;3.23;2.80;;;7.90;99.90;;;;;;5058113;28;20449;-71
2023/01/03 03:55:52;;;;;;;2.50;2.30;;;7.90;99.90;;;;;;5080966;28;20440;-72
2023/01/03 03:58:22;;;;;;;3.50;2.90;;;7.90;99.90;;;;;;5062137;28;20451;-71
2023/01/03 04:00:50;;;;;;;3.00;2.70;;;7.90;99.90;;;;;;5057396;28;20438;-72
2023/01/03 04:03:18;;;;;;;3.20;2.90;;;7.80;99.90;;;;;;5043269;28;20438;-72
2023/01/03 04:05:54;;;;;;;3.00;2.70;;;7.80;99.90;;;;;;5035613;28;20453;-70
2023/01/03 04:08:20;;;;;;;3.70;3.30;;;7.80;99.90;;;;;;5086501;28;20452;-71
2023/01/03 04:10:46;;;;;;;2.80;2.57;;;7.80;99.90;;;;;;5068671;28;20448;-72
2023/01/03 04:13:12;;;;;;;4.27;3.23;;;7.80;99.90;;;;;;5061303;28;20256;-71
2023/01/03 04:15:37;;;;;;;3.17;2.87;;;7.70;99.90;;;;;;5038534;28;20267;-72
2023/01/03 04:18:03;;;;;;;3.77;3.40;;;7.70;99.90;;;;;;5053872;28;20274;-71
2023/01/03 04:20:29;;;;;;;4.13;2.60;;;7.70;99.90;;;;;;5058255;28;20772;-72
2023/01/03 04:22:55;;;;;;;4.07;3.43;;;7.70;99.90;;;;;;5032332;28;20219;-71
2023/01/03 04:25:21;;;;;;;2.90;2.70;;;7.70;99.90;;;;;;5056946;28;20277;-71
2023/01/03 04:27:46;;;;;;;4.50;3.30;;;7.60;99.90;;;;;;5052490;28;20446;-71
2023/01/03 04:30:12;;;;;;;3.47;3.17;;;7.60;99.90;;;;;;5056337;28;20212;-73
2023/01/03 04:32:38;;;;;;;3.50;2.67;;;7.60;99.90;;;;;;5061162;28;20304;-72
2023/01/03 04:35:04;;;;;;;3.70;2.90;;;7.60;99.90;;;;;;5049524;28;20515;-72
2023/01/03 04:37:30;;;;;;;4.50;3.30;;;7.60;99.90;;;;;;5058145;28;20306;-72
2023/01/03 04:39:56;;;;;;;5.40;3.50;;;7.50;99.90;;;;;;5042738;28;20538;-72
2023/01/03 04:45:06;;;;;;;5.70;3.30;;;7.50;99.90;;;;;;5058507;28;20266;-72
2023/01/03 04:47:32;;;;;;;4.80;3.47;;;7.50;99.90;;;;;;5033161;28;20470;-71
2023/01/03 04:49:57;;;;;;;3.77;3.37;;;7.50;99.90;;;;;;5036839;28;20510;-71
2023/01/03 04:52:23;;;;;;;4.17;3.80;;;7.40;99.90;;;;;;5050357;28;20223;-71
2023/01/03 04:54:49;;;;;;;5.10;3.50;;;7.30;99.90;;;;;;5031018;28;20591;-72
2023/01/03 04:57:15;;;;;;;4.83;3.70;;;7.30;99.90;;;;;;5056868;28;20207;-72
2023/01/03 04:59:41;;;;;;;4.47;3.70;;;7.30;99.90;;;;;;5050219;28;20215;-72
2023/01/03 05:02:06;;;;;;;4.10;3.57;;;7.30;99.90;;;;;;5057486;28;20243;-71
2023/01/03 05:04:32;;;;;;;5.53;3.90;;;7.30;99.90;;;;;;5034884;28;20249;-72
2023/01/03 05:06:58;;;;;;;5.10;4.00;;;7.30;99.90;;;;;;5048486;28;20220;-71
2023/01/03 05:09:25;;;;;;;4.17;3.50;;;7.30;99.90;;;;;;5030605;28;20458;-71
2023/01/03 05:11:53;;;;;;;5.70;4.10;;;7.20;99.90;;;;;;5049016;28;20306;-71
2023/01/03 05:14:18;;;;;;;3.37;3.07;;;7.20;99.90;;;;;;5038079;28;21073;-72
2023/01/03 05:16:44;;;;;;;4.17;3.67;;;7.20;99.90;;;;;;5053446;28;20458;-72
2023/01/03 05:19:10;;;;;;;5.50;3.90;;;7.20;99.90;;;;;;5048360;28;20687;-72
2023/01/03 05:27:05;;;;;;;6.27;5.27;;;7.00;99.90;;;;;;5077341;28;21007;-71
2023/01/03 05:29:32;;;;;;;6.07;5.10;;;6.90;99.90;;;;;;5062551;28;20483;-72
2023/01/03 05:31:58;;;;;;;5.83;4.73;;;7.00;99.90;;;;;;5054046;28;20511;-71
2023/01/03 05:34:24;;;;;;;7.70;4.93;;;7.00;99.90;;;;;;5044305;28;20477;-71
2023/01/03 05:36:50;;;;;;;6.40;4.80;;;7.00;99.90;;;;;;5037350;28;20239;-72
2023/01/03 05:39:15;;;;;;;6.10;4.00;;;7.00;99.90;;;;;;5037938;28;20537;-73
2023/01/03 05:41:59;;;;;;;4.23;3.73;;;7.00;99.90;;;;;;5068097;28;20214;-72
2023/01/03 05:44:29;;;;;;;5.77;4.70;;;7.00;99.90;;;;;;5069262;28;20219;-71
2023/01/03 05:46:59;;;;;;;5.00;4.07;;;7.00;99.90;;;;;;5064232;28;20449;-70
2023/01/03 05:49:25;;;;;;;4.30;3.87;;;7.00;99.90;;;;;;5051181;28;20466;-72
2023/01/03 05:51:51;;;;;;;9.77;5.47;;;7.00;99.90;;;;;;5052770;28;20524;-72
2023/01/03 05:54:19;;;;;;;10.73;4.93;;;7.00;99.90;;;;;;5056580;28;20462;-71
2023/01/03 05:56:45;;;;;;;6.20;4.93;;;6.90;99.90;;;;;;5066995;28;20307;-71
2023/01/03 05:59:11;;;;;;;10.20;5.10;;;6.90;99.90;;;;;;5055811;28;20482;-71
2023/01/03 06:01:37;;;;;;;6.67;4.90;;;6.80;99.90;;;;;;5058562;28;20447;-73
2023/01/03 06:04:03;;;;;;;6.07;4.97;;;6.90;99.90;;;;;;5071617;28;20265;-72
2023/01/03 06:06:29;;;;;;;6.13;4.90;;;6.90;99.90;;;;;;5059921;28;20446;-72
2023/01/03 06:08:55;;;;;;;6.00;5.23;;;6.90;99.90;;;;;;5059268;28;20476;-71
2023/01/03 06:11:21;;;;;;;7.73;5.13;;;6.80;99.90;;;;;;5032491;28;20228;-72
2023/01/03 06:13:46;;;;;;;11.50;7.70;;;6.80;99.90;;;;;;5052939;28;20212;-72
2023/01/03 06:19:00;;;;;;;8.10;6.03;;;6.80;99.90;;;;;;5062172;28;20710;-72
2023/01/03 06:21:26;;;;;;;10.90;8.40;;;6.90;99.90;;;;;;5042741;28;20462;-72
2023/01/03 06:23:52;;;;;;;10.60;6.60;;;6.90;99.90;;;;;;5032598;28;20495;-72
2023/01/03 06:26:20;;;;;;;8.57;6.50;;;6.80;99.90;;;;;;5031984;28;20714;-72
2023/01/03 06:28:46;;;;;;;6.07;5.43;;;6.70;99.90;;;;;;5005794;28;20231;-71
2023/01/03 06:31:12;;;;;;;6.60;4.70;;;6.60;99.90;;;;;;5039295;28;20466;-71
2023/01/03 06:33:39;;;;;;;4.67;3.77;;;6.60;99.90;;;;;;5050851;28;20299;-71
2023/01/03 06:36:07;;;;;;;4.27;3.90;;;6.70;99.90;;;;;;5033366;28;20826;-72
2023/01/03 06:38:33;;;;;;;6.90;5.50;;;6.60;99.90;;;;;;5039468;28;20439;-71
2023/01/03 06:40:59;;;;;;;5.93;4.70;;;6.60;99.90;;;;;;5032543;28;21168;-72
2023/01/03 06:43:25;;;;;;;4.73;4.00;;;6.60;99.90;;;;;;5055733;28;20224;-72
2023/01/03 06:54:19;;;;;;;7.00;4.00;;;6.40;99.90;;;;;;5076344;28;20521;-71
2023/01/03 06:56:45;;;;;;;6.07;4.53;;;6.40;99.90;;;;;;5063761;28;20494;-71
2023/01/03 06:59:10;;;;;;;8.03;5.37;;;6.50;99.90;;;;;;5050947;28;20453;-72
2023/01/03 07:01:36;;;;;;;11.33;7.97;;;6.50;99.90;;;;;;5062004;28;20250;-72
2023/01/03 07:04:02;;;;;;;19.83;8.80;;;6.40;99.90;;;;;;5044493;28;20243;-72
2023/01/03 07:06:28;;;;;;;14.47;8.60;;;6.30;99.90;;;;;;5040327;28;20298;-72
2023/01/03 07:08:55;;;;;;;16.27;9.50;;;6.40;99.90;;;;;;5056986;28;20221;-74
2023/01/03 07:11:23;;;;;;;10.80;8.40;;;6.40;99.90;;;;;;5052111;28;20552;-73
2023/01/03 07:13:59;;;;;;;14.30;9.07;;;6.30;99.90;;;;;;5083395;28;20460;-72
2023/01/03 07:16:33;;;;;;;11.40;8.60;;;6.30;99.90;;;;;;5055660;28;20458;-73
2023/01/03 07:18:59;;;;;;;9.47;7.13;;;6.30;99.90;;;;;;5051510;28;20487;-72
2023/01/03 07:21:27;;;;;;;10.40;7.43;;;6.30;99.90;;;;;;5068616;28;20541;-73
2023/01/03 07:23:55;;;;;;;10.80;7.37;;;6.30;99.90;;;;;;5032777;28;20773;-72
2023/01/03 07:26:23;;;;;;;12.47;6.73;;;6.40;99.90;;;;;;5052322;28;20442;-73
2023/01/03 07:28:49;;;;;;;8.77;5.43;;;6.30;99.90;;;;;;5059038;28;20441;-72
2023/01/03 07:31:15;;;;;;;6.60;4.80;;;6.30;99.90;;;;;;5053198;28;20465;-72
2023/01/03 07:33:40;;;;;;;7.23;5.93;;;6.30;99.90;;;;;;5041783;28;20496;-72
2023/01/03 07:36:10;;;;;;;8.60;5.17;;;6.30;99.90;;;;;;5056937;28;20212;-73
2023/01/03 07:38:37;;;;;;;8.70;5.43;;;6.30;99.90;;;;;;5057834;28;20216;-72
2023/01/03 07:41:03;;;;;;;5.50;4.40;;;6.30;99.90;;;;;;5060623;28;20445;-72
2023/01/03 07:43:35;;;;;;;10.20;5.50;;;6.30;99.90;;;;;;5062070;28;20876;-72
2023/01/03 07:46:20;;;;;;;6.73;4.70;;;6.30;99.90;;;;;;5033372;28;20454;-72
2023/01/03 07:48:51;;;;;;;8.13;5.20;;;6.20;99.90;;;;;;5047907;28;20442;-74
2023/01/03 07:51:19;;;;;;;5.83;5.20;;;6.20;99.90;;;;;;5064446;28;20488;-73
2023/01/03 07:53:49;;;;;;;4.70;4.13;;;6.10;99.90;;;;;;5042339;28;20441;-71
2023/01/03 07:56:18;;;;;;;7.10;4.90;;;6.10;99.90;;;;;;5062794;28;20503;-73
2023/01/03 07:58:43;;;;;;;6.07;4.60;;;6.20;99.90;;;;;;5048170;28;20458;-70
2023/01/03 08:01:15;;;;;;;6.87;4.90;;;6.20;99.90;;;;;;5046010;28;20494;-72
2023/01/03 08:03:42;;;;;;;5.67;3.93;;;6.20;99.90;;;;;;5069168;28;20225;-72
2023/01/03 08:06:17;;;;;;;5.23;3.93;;;6.20;99.90;;;;;;5060510;28;20583;-72
2023/01/03 08:08:43;;;;;;;6.10;4.00;;;6.20;99.90;;;;;;5056618;28;20902;-71
2023/01/03 08:13:56;;;;;;;5.03;3.73;;;6.20;99.90;;;;;;5066480;28;20528;-72
2023/01/03 08:16:21;;;;;;;5.43;4.07;;;6.20;99.90;;;;;;5064562;28;20524;-71
2023/01/03 08:18:47;;;;;;;6.20;4.43;;;6.20;99.90;;;;;;5031247;28;20273;-72
2023/01/03 08:21:14;;;;;;;6.57;3.80;;;6.20;99.90;;;;;;5057282;28;20211;-72
2023/01/03 08:23:40;;;;;;;6.00;4.90;;;6.20;99.90;;;;;;5040964;28;20271;-72
2023/01/03 08:26:10;;;;;;;6.80;4.00;;;6.10;99.90;;;;;;5058528;28;20989;-72
2023/01/03 08:28:36;;;;;;;5.17;4.10;;;6.10;99.90;;;;;;5056076;28;20920;-73
2023/01/03 08:31:14;;;;;;;6.47;4.17;;;6.20;99.90;;;;;;5049146;28;21048;-72
2023/01/03 08:33:49;;;;;;;6.97;3.83;;;6.10;99.90;;;;;;5035283;28;20830;-72
2023/01/03 08:36:15;;;;;;;4.37;3.40;;;6.20;99.90;;;;;;5051463;28;20460;-71
2023/01/03 08:38:47;;;;;;;6.20;3.97;;;6.20;99.90;;;;;;5050717;28;20445;-72
2023/01/03 08:41:15;;;;;;;6.17;3.80;;;6.20;99.90;;;;;;5050854;28;20504;-72
2023/01/03 08:43:44;;;;;;;5.10;4.10;;;6.20;99.90;;;;;;5034970;28;20434;-72
2023/01/03 08:46:11;;;;;;;4.93;3.97;;;6.20;99.90;;;;;;5045653;28;20968;-72
2023/01/03 08:48:37;;;;;;;6.00;4.43;;;6.20;99.90;;;;;;5043694;28;20469;-72
2023/01/03 08:51:03;;;;;;;6.10;4.40;;;6.20;99.90;;;;;;5062579;28;20472;-72
2023/01/03 08:53:29;;;;;;;6.80;4.10;;;6.20;99.90;;;;;;5052792;28;20454;-72
2023/01/03 08:55:55;;;;;;;5.50;4.23;;;6.20;99.90;;;;;;5054526;28;20466;-71
2023/01/03 08:58:21;;;;;;;4.90;3.97;;;6.20;99.90;;;;;;5077393;28;20215;-72
2023/01/03 09:00:46;;;;;;;6.43;4.30;;;6.30;99.90;;;;;;5035935;28;20449;-72
2023/01/03 09:03:12;;;;;;;7.40;4.80;;;6.30;99.90;;;;;;5038004;28;20595;-73
2023/01/03 09:05:38;;;;;;;5.10;4.07;;;6.30;99.90;;;;;;5031729;28;20224;-72
2023/01/03 09:08:04;;;;;;;5.23;3.83;;;6.40;99.90;;;;;;5033849;28;20216;-73
2023/01/03 09:10:30;;;;;;;5.20;4.00;;;6.40;99.90;;;;;;5039499;28;20226;-73
2023/01/03 09:12:55;;;;;;;4.83;3.80;;;6.40;99.90;;;;;;5028201;28;20466;-72
2023/01/03 09:15:21;;;;;;;3.43;3.13;;;6.50;99.90;;;;;;5050594;28;20218;-72
2023/01/03 09:17:48;;;;;;;4.80;3.87;;;6.50;99.90;;;;;;5027528;28;20232;-72
2023/01/03 09:20:16;;;;;;;6.77;3.90;;;6.60;99.90;;;;;;5042751;28;20211;-73
2023/01/03 09:22:42;;;;;;;5.97;3.97;;;6.70;99.90;;;;;;5060401;28;20461;-72
2023/01/03 09:25:08;;;;;;;4.70;3.03;;;6.70;99.90;;;;;;5065642;28;20452;-73
2023/01/03 09:27:34;;;;;;;5.83;3.60;;;6.80;99.90;;;;;;5039936;28;20254;-72
2023/01/03 09:29:59;;;;;;;4.83;3.50;;;6.90;99.90;;;;;;5034660;28;20982;-73
2023/01/03 09:32:25;;;;;;;3.97;3.57;;;6.90;99.90;;;;;;5028851;28;20291;-73
2023/01/03 09:34:51;;;;;;;5.80;3.90;;;7.00;99.90;;;;;;5040205;28;20219;-71
2023/01/03 09:37:16;;;;;;;4.87;3.90;;;7.20;99.90;;;;;;5041854;28;20284;-73
2023/01/03 09:39:42;;;;;;;6.40;3.80;;;7.30;99.90;;;;;;5046632;28;20635;-73
2023/01/03 09:45:01;;;;;;;7.83;3.70;;;7.50;99.90;;;;;;5055540;28;20247;-73
2023/01/03 09:47:29;;;;;;;4.13;3.33;;;7.60;99.90;;;;;;5048609;28;21033;-72
2023/01/03 09:49:56;;;;;;;10.93;4.03;;;7.70;99.90;;;;;;5061486;28;20540;-73
2023/01/03 10:04:25;;;;;;;5.27;4.00;;;8.10;99.90;;;;;;5053893;28;20538;-72
2023/01/03 10:07:28;;;;;;;4.90;3.80;;;8.20;99.90;;;;;;5039485;28;20446;-73
2023/01/03 10:09:57;;;;;;;6.50;4.40;;;8.40;99.90;;;;;;5070558;28;20463;-72
2023/01/03 10:12:44;;;;;;;8.60;4.10;;;8.60;99.90;;;;;;5048236;28;20868;-72
2023/01/03 10:15:34;;;;;;;6.50;4.10;;;8.70;99.90;;;;;;5046081;28;20449;-73
2023/01/03 10:18:25;;;;;;;10.30;4.17;;;8.80;99.90;;;;;;5046343;28;20527;-72
2023/01/03 10:21:00;;;;;;;11.10;5.10;;;8.70;99.90;;;;;;5052604;28;20819;-72
2023/01/03 10:23:26;;;;;;;7.20;4.40;;;8.80;99.90;;;;;;5040385;28;20994;-72
2023/01/03 10:25:52;;;;;;;9.63;4.33;;;8.80;99.90;;;;;;5039723;28;20808;-73
2023/01/03 10:28:21;;;;;;;8.20;5.50;;;8.80;99.90;;;;;;5053859;28;20476;-72
2023/01/03 10:31:20;;;;;;;7.37;4.70;;;8.70;99.90;;;;;;5055742;28;20310;-72
2023/01/03 10:33:47;;;;;;;10.00;4.57;;;8.70;99.90;;;;;;5051090;28;20569;-73
2023/01/03 10:36:15;;;;;;;6.77;4.40;;;8.70;99.90;;;;;;5054651;28;20938;-74
2023/01/03 10:38:43;;;;;;;7.07;4.90;;;8.80;99.90;;;;;;5048677;28;20453;-72
2023/01/03 10:41:18;;;;;;;7.23;4.40;;;8.80;99.90;;;;;;5038461;28;20445;-72
2023/01/03 10:43:54;;;;;;;6.63;4.27;;;8.80;99.90;;;;;;5030864;28;20464;-73
2023/01/03 10:46:21;;;;;;;8.13;4.60;;;8.80;99.90;;;;;;5065010;28;20453;-73
2023/01/03 10:48:49;;;;;;;10.73;4.77;;;8.80;99.90;;;;;;5064771;28;20445;-73
2023/01/03 10:51:41;;;;;;;6.50;4.17;;;8.80;99.90;;;;;;5052514;28;20454;-73
2023/01/03 10:54:22;;;;;;;6.70;3.50;;;8.70;99.90;;;;;;5056906;28;20473;-73
2023/01/03 10:56:48;;;;;;;8.17;4.80;;;8.70;99.90;;;;;;5050541;28;20457;-73
2023/01/03 10:59:14;;;;;;;7.23;4.47;;;8.70;99.90;;;;;;5043807;28;20448;-73
2023/01/03 11:02:02;;;;;;;6.90;4.47;;;8.70;99.90;;;;;;5057217;28;20795;-73
2023/01/03 11:04:31;;;;;;;5.03;3.87;;;8.70;99.90;;;;;;5047860;28;20695;-73
2023/01/03 11:07:12;;;;;;;8.03;4.80;;;8.70;99.90;;;;;;5067937;28;20437;-72
2023/01/03 11:09:55;;;;;;;8.73;5.67;;;8.80;99.90;;;;;;5045981;28;20982;-73
2023/01/03 11:12:35;;;;;;;8.10;5.10;;;8.80;99.90;;;;;;5053903;28;20918;-72
2023/01/03 11:15:13;;;;;;;8.37;4.77;;;8.80;99.90;;;;;;5061900;28;20465;-72
2023/01/03 11:18:11;;;;;;;7.07;4.70;;;8.90;99.90;;;;;;5051507;28;20482;-72
2023/01/03 11:21:07;;;;;;;6.10;4.60;;;8.90;99.90;;;;;;5024573;28;20450;-72
2023/01/03 11:24:01;;;;;;;6.97;4.37;;;8.90;99.90;;;;;;5041041;28;20446;-73
2023/01/03 11:26:38;;;;;;;7.20;4.60;;;8.90;99.90;;;;;;5052576;28;20461;-72
2023/01/03 11:29:04;;;;;;;6.70;4.67;;;8.90;99.90;;;;;;5042975;28;20462;-72
2023/01/03 11:31:35;;;;;;;7.43;4.97;;;8.90;99.90;;;;;;5032890;28;20467;-72
2023/01/03 11:34:39;;;;;;;5.40;3.97;;;8.90;99.90;;;;;;5056940;28;20240;-72
2023/01/03 11:37:20;;;;;;;6.93;4.50;;;8.90;99.90;;;;;;4971586;28;20455;-73
2023/01/03 11:40:12;;;;;;;6.10;4.20;;;9.00;99.90;;;;;;5046393;28;20577;-71
2023/01/03 11:43:15;;;;;;;6.90;4.40;;;9.00;99.90;;;;;;5039686;28;20463;-73
2023/01/03 11:46:12;;;;;;;7.10;4.20;;;9.00;99.90;;;;;;5081057;28;20454;-73
2023/01/03 11:49:03;;;;;;;5.57;3.77;;;9.00;99.90;;;;;;5062390;28;22582;-73
2023/01/03 11:51:53;;;;;;;7.07;4.13;;;9.00;99.90;;;;;;5051659;28;20557;-71
2023/01/03 11:55:11;;;;;;;6.30;3.53;;;9.00;99.90;;;;;;5023384;28;20460;-73
2023/01/03 11:57:49;;;;;;;7.10;3.90;;;9.00;99.90;;;;;;5053888;28;20458;-73
2023/01/03 12:00:29;;;;;;;7.00;3.53;;;9.00;99.90;;;;;;5048829;28;20536;-73
2023/01/03 12:03:09;;;;;;;5.53;3.50;;;9.00;99.90;;;;;;5042553;28;20473;-73
2023/01/03 12:05:43;;;;;;;5.17;3.67;;;9.00;99.90;;;;;;5042383;28;20492;-74
2023/01/03 12:08:11;;;;;;;5.77;3.50;;;9.00;99.90;;;;;;5050451;28;20541;-73
2023/01/03 12:11:00;;;;;;;6.60;3.60;;;9.00;99.90;;;;;;5038657;28;20441;-73
2023/01/03 12:13:29;;;;;;;5.77;3.50;;;9.10;99.90;;;;;;5038895;28;20500;-73
2023/01/03 12:16:03;;;;;;;3.73;2.77;;;9.10;99.90;;;;;;5061055;28;20445;-73
2023/01/03 12:18:31;;;;;;;4.80;3.23;;;9.10;99.90;;;;;;5058237;28;20451;-73
2023/01/03 12:21:06;;;;;;;4.30;2.73;;;9.10;99.90;;;;;;5037986;28;20466;-73
2023/01/03 12:23:54;;;;;;;3.23;2.93;;;9.10;99.90;;;;;;5055053;28;21238;-73
2023/01/03 12:26:23;;;;;;;3.23;2.93;;;9.10;99.90;;;;;;5054706;28;20461;-72
2023/01/03 12:29:12;;;;;;;3.63;3.00;;;9.10;99.90;;;;;;5048282;28;20474;-73
2023/01/03 12:31:49;;;;;;;3.20;2.30;;;9.20;99.90;;;;;;5024951;28;20462;-74
2023/01/03 12:34:41;;;;;;;5.67;3.13;;;9.20;99.90;;;;;;5029567;28;20697;-71
2023/01/03 12:37:12;;;;;;;5.20;2.23;;;9.20;99.90;;;;;;5047464;28;20463;-73
2023/01/03 12:39:55;;;;;;;2.80;2.60;;;9.20;99.90;;;;;;5030155;28;20990;-73
2023/01/03 12:42:36;;;;;;;2.90;2.60;;;9.20;99.90;;;;;;5038022;28;20499;-71
2023/01/03 12:45:20;;;;;;;3.23;2.80;;;9.30;99.90;;;;;;5061318;28;20451;-72
2023/01/03 12:47:57;;;;;;;7.70;2.83;;;9.30;99.90;;;;;;5061059;28;20462;-72
2023/01/03 12:50:35;;;;;;;5.73;3.00;;;9.30;99.90;;;;;;5025011;28;20473;-70
2023/01/03 12:53:23;;;;;;;6.13;2.87;;;9.30;99.90;;;;;;5033294;28;20511;-74
2023/01/03 12:56:11;;;;;;;3.20;2.90;;;9.40;99.90;;;;;;5044719;28;20997;-72
2023/01/03 12:59:05;;;;;;;4.63;2.97;;;9.40;99.90;;;;;;5073885;28;20470;-73
2023/01/03 13:01:45;;;;;;;7.50;3.10;;;9.40;99.90;;;;;;5046558;28;20569;-72
2023/01/03 13:04:17;;;;;;;3.60;2.33;;;9.40;99.90;;;;;;5039417;28;20474;-75
2023/01/03 13:06:54;;;;;;;4.27;3.33;;;9.40;99.90;;;;;;5037314;28;20546;-74
2023/01/03 13:09:30;;;;;;;3.43;3.13;;;9.50;99.90;;;;;;5030192;28;20467;-72
2023/01/03 13:12:07;;;;;;;5.80;3.17;;;9.50;99.90;;;;;;5054655;28;20482;-73
2023/01/03 13:15:02;;;;;;;2.53;2.30;;;9.50;99.90;;;;;;5044840;28;20459;-73
2023/01/03 13:17:30;;;;;;;3.53;2.70;;;9.50;99.90;;;;;;5040083;28;20498;-72
2023/01/03 13:19:56;;;;;;;2.97;2.70;;;9.50;99.90;;;;;;5033902;28;20484;-73
2023/01/03 13:22:32;;;;;;;4.20;2.63;;;9.50;99.90;;;;;;5045980;28;20464;-72
2023/01/03 13:25:38;;;;;;;4.43;2.63;;;9.50;99.90;;;;;;5037518;28;20584;-73
2023/01/03 13:28:13;;;;;;;5.87;2.90;;;9.50;99.90;;;;;;5050361;28;20491;-73
2023/01/03 13:30:39;;;;;;;3.40;2.43;;;9.50;99.90;;;;;;5054692;28;20481;-72
2023/01/03 13:33:10;;;;;;;2.87;2.57;;;9.50;99.90;;;;;;5045314;28;20494;-73
2023/01/03 13:35:58;;;;;;;3.70;2.70;;;9.50;99.90;;;;;;5053084;28;20215;-72
2023/01/03 13:38:34;;;;;;;3.73;3.13;;;9.50;99.90;;;;;;5026866;28;20458;-73
2023/01/03 13:41:36;;;;;;;5.20;2.83;;;9.50;99.90;;;;;;5052929;28;20476;-73
2023/01/03 13:44:16;;;;;;;4.73;2.30;;;9.50;99.90;;;;;;5057819;28;20847;-73
2023/01/03 13:46:42;;;;;;;4.30;2.60;;;9.50;99.90;;;;;;5058796;28;20957;-74
2023/01/03 13:49:16;;;;;;;4.33;2.67;;;9.50;99.90;;;;;;5059209;28;20462;-73
2023/01/03 13:51:51;;;;;;;4.00;2.50;;;9.50;99.90;;;;;;5048130;28;20523;-73
2023/01/03 13:54:16;;;;;;;4.17;2.70;;;9.50;99.90;;;;;;5034227;28;20493;-74
2023/01/03 13:56:42;;;;;;;5.60;3.40;;;9.50;99.90;;;;;;5034408;28;20458;-72
2023/01/03 13:59:13;;;;;;;8.07;5.30;;;9.60;99.90;;;;;;5045353;28;20227;-72
2023/01/03 14:01:54;;;;;;;13.20;8.60;;;9.60;99.90;;;;;;5051317;28;20240;-73
2023/01/03 14:04:22;;;;;;;11.60;9.13;;;9.70;99.90;;;;;;5058496;28;20450;-72
2023/01/03 14:06:51;;;;;;;15.83;14.13;;;9.60;99.90;;;;;;5049460;28;20457;-73
2023/01/03 14:09:38;;;;;;;17.20;13.93;;;9.60;99.90;;;;;;5053835;28;20458;-72
2023/01/03 14:12:22;;;;;;;9.50;8.60;;;9.60;99.90;;;;;;5073918;28;20478;-73
2023/01/03 14:14:53;;;;;;;5.87;5.13;;;9.70;99.90;;;;;;5053940;28;20974;-73
2023/01/03 14:17:26;;;;;;;4.43;3.60;;;9.60;99.90;;;;;;5052957;28;20446;-73
2023/01/03 14:19:55;;;;;;;11.67;4.23;;;9.60;99.90;;;;;;5036394;28;20462;-72